Time;durP1;ratioP1;P1;durP2;ratioP2;P2;SDS_P1;SDS_P2;PMS_P1;PMS_P2;Temp;Humidity;BMP_temperature;BMP_pressure;BME280_temperature;BME280_humidity;BME280_pressure;Samples;Min_cycle;Max_cycle;Signal;HPM_P1;HPM_P2
2021/11/07 00:00:31;;;;;;;14.57;9.80;;;2.20;99.90;;;;;;5012431;28;20421;-68
2021/11/07 00:03:06;;;;;;;12.53;9.90;;;2.20;99.90;;;;;;5012395;28;20449;-67
2021/11/07 00:05:41;;;;;;;14.50;10.17;;;2.20;99.90;;;;;;5012438;28;20785;-68
2021/11/07 00:08:25;;;;;;;11.60;9.47;;;2.00;99.90;;;;;;5012089;28;20413;-68
2021/11/07 00:10:57;;;;;;;13.93;9.87;;;1.90;99.90;;;;;;5012226;28;20544;-68
2021/11/07 00:13:25;;;;;;;12.50;9.83;;;1.80;99.90;;;;;;5012351;28;20429;-68
2021/11/07 00:15:58;;;;;;;16.57;11.03;;;1.80;99.90;;;;;;5012288;28;20414;-68
2021/11/07 00:18:34;;;;;;;15.73;10.23;;;1.70;99.90;;;;;;5011916;28;20406;-69
2021/11/07 00:21:14;;;;;;;16.13;10.80;;;1.60;99.90;;;;;;5012113;28;20429;-68
2021/11/07 00:23:56;;;;;;;12.70;9.43;;;1.50;99.90;;;;;;5015445;28;20451;-68
2021/11/07 00:26:29;;;;;;;12.17;9.90;;;1.50;99.90;;;;;;5016203;28;20923;-68
2021/11/07 00:29:01;;;;;;;15.17;11.30;;;1.50;99.90;;;;;;5015586;28;20788;-67
2021/11/07 00:31:36;;;;;;;15.93;11.00;;;1.60;99.90;;;;;;5015965;28;21012;-68
2021/11/07 00:36:39;;;;;;;14.10;10.20;;;1.80;99.90;;;;;;5015988;28;20421;-68
2021/11/07 00:42:00;;;;;;;12.27;9.07;;;1.80;99.90;;;;;;5016104;28;20441;-67
2021/11/07 00:44:31;;;;;;;12.93;9.53;;;1.90;99.90;;;;;;5015926;28;20425;-68
2021/11/07 00:47:01;;;;;;;10.13;8.80;;;1.90;99.90;;;;;;5015800;28;20413;-68
2021/11/07 00:49:38;;;;;;;12.97;11.00;;;1.80;99.90;;;;;;5015545;28;20950;-67
2021/11/07 00:52:17;;;;;;;15.53;10.10;;;1.90;99.90;;;;;;5015669;28;20476;-68
2021/11/07 00:57:25;;;;;;;14.30;11.10;;;1.90;99.90;;;;;;5015696;28;21078;-67
2021/11/07 00:59:58;;;;;;;12.90;9.97;;;1.80;99.90;;;;;;5015651;28;20997;-68
2021/11/07 01:02:30;;;;;;;10.43;8.57;;;1.80;99.90;;;;;;5015430;28;20552;-66
2021/11/07 01:04:56;;;;;;;10.80;9.50;;;1.90;99.90;;;;;;5015431;28;20422;-68
2021/11/07 01:07:23;;;;;;;12.10;9.47;;;1.90;99.90;;;;;;5015173;28;20422;-68
2021/11/07 01:09:53;;;;;;;11.90;9.23;;;2.00;99.90;;;;;;5015268;28;20828;-68
2021/11/07 01:12:21;;;;;;;13.43;9.33;;;2.00;99.90;;;;;;5015212;28;20429;-68
2021/11/07 01:14:48;;;;;;;11.37;8.40;;;2.10;99.90;;;;;;5015282;28;20414;-68
2021/11/07 01:17:13;;;;;;;15.20;9.53;;;2.10;99.90;;;;;;5015082;28;20453;-68
2021/11/07 01:19:41;;;;;;;9.83;7.60;;;2.10;99.90;;;;;;5015057;28;20456;-68
2021/11/07 01:22:10;;;;;;;10.20;8.23;;;2.00;99.90;;;;;;5015075;28;20191;-68
2021/11/07 01:24:39;;;;;;;17.60;9.83;;;1.90;99.90;;;;;;5015233;28;20429;-68
2021/11/07 01:27:17;;;;;;;13.10;8.47;;;1.80;99.90;;;;;;5014960;28;20501;-68
2021/11/07 01:29:47;;;;;;;13.60;10.30;;;1.80;99.90;;;;;;5013204;28;20824;-67
2021/11/07 01:32:15;;;;;;;12.50;10.50;;;1.90;99.90;;;;;;5014933;28;20937;-67
2021/11/07 01:34:57;;;;;;;11.03;9.00;;;2.00;99.90;;;;;;5013739;28;20487;-68
2021/11/07 01:37:26;;;;;;;12.20;9.33;;;2.10;99.90;;;;;;5014680;28;20413;-68
2021/11/07 01:39:59;;;;;;;14.90;9.97;;;2.20;99.90;;;;;;5015048;28;20418;-68
2021/11/07 01:42:36;;;;;;;10.13;8.93;;;2.30;99.90;;;;;;5014893;28;20434;-68
2021/11/07 01:45:10;;;;;;;11.70;9.30;;;2.40;99.90;;;;;;5014827;28;20421;-68
2021/11/07 01:47:43;;;;;;;11.53;9.90;;;2.50;99.90;;;;;;5014369;28;21077;-68
2021/11/07 01:50:09;;;;;;;10.80;9.00;;;2.60;99.90;;;;;;5014376;28;20458;-67
2021/11/07 01:52:39;;;;;;;12.63;9.17;;;2.60;99.90;;;;;;4995148;28;20442;-68
2021/11/07 01:55:06;;;;;;;13.97;9.87;;;2.50;99.90;;;;;;4995164;28;20419;-68
2021/11/07 01:57:35;;;;;;;11.33;10.10;;;2.60;99.90;;;;;;4994655;28;20415;-68
2021/11/07 02:00:19;;;;;;;12.27;9.87;;;2.70;99.90;;;;;;4994837;28;20846;-68
2021/11/07 02:02:44;;;;;;;11.80;9.17;;;2.80;99.90;;;;;;4994878;28;20419;-68
2021/11/07 02:05:10;;;;;;;11.50;9.20;;;2.90;99.90;;;;;;4996672;28;20955;-67
2021/11/07 02:07:36;;;;;;;12.73;10.00;;;2.90;99.90;;;;;;4994484;28;20167;-68
2021/11/07 02:10:04;;;;;;;12.07;9.47;;;2.90;99.90;;;;;;4994655;28;20202;-67
2021/11/07 02:12:30;;;;;;;12.67;9.40;;;2.80;99.90;;;;;;4994494;28;20457;-67
2021/11/07 02:14:56;;;;;;;13.60;11.37;;;2.70;99.90;;;;;;4994596;28;20510;-67
2021/11/07 02:17:21;;;;;;;13.00;9.87;;;2.50;99.90;;;;;;4994215;28;20207;-68
2021/11/07 02:19:47;;;;;;;12.70;10.23;;;2.60;99.90;;;;;;4994569;28;20176;-67
2021/11/07 02:22:14;;;;;;;14.07;10.50;;;2.60;99.90;;;;;;4994416;28;20196;-67
2021/11/07 02:24:41;;;;;;;13.70;9.97;;;2.80;99.90;;;;;;4994373;28;20202;-68
2021/11/07 02:27:07;;;;;;;15.23;10.40;;;2.80;99.90;;;;;;4994393;28;20426;-68
2021/11/07 02:29:33;;;;;;;15.43;10.60;;;2.80;99.90;;;;;;4994042;28;22381;-68
2021/11/07 02:31:59;;;;;;;15.80;11.20;;;2.80;99.90;;;;;;4994024;28;20970;-68
2021/11/07 02:34:29;;;;;;;14.90;11.47;;;2.70;99.90;;;;;;4994301;28;20428;-67
2021/11/07 02:36:56;;;;;;;12.60;10.27;;;2.70;99.90;;;;;;4994245;28;20561;-67
2021/11/07 02:39:22;;;;;;;15.63;11.37;;;2.70;99.90;;;;;;4993781;28;20462;-68
2021/11/07 02:41:48;;;;;;;15.07;11.40;;;2.80;99.90;;;;;;4994052;28;20438;-68
2021/11/07 02:44:40;;;;;;;9.63;8.63;;;2.80;99.90;;;;;;4994004;28;20429;-67
2021/11/07 02:47:08;;;;;;;15.23;10.97;;;2.80;99.90;;;;;;4993841;28;20422;-67
2021/11/07 02:49:35;;;;;;;13.80;10.23;;;2.80;99.90;;;;;;4993690;28;20577;-68
2021/11/07 02:52:02;;;;;;;13.03;10.53;;;2.80;99.90;;;;;;4993786;28;20808;-67
2021/11/07 02:54:28;;;;;;;12.03;10.73;;;2.80;99.90;;;;;;4993745;28;20422;-67
2021/11/07 02:56:57;;;;;;;14.50;10.93;;;2.80;99.90;;;;;;4993793;28;20765;-67
2021/11/07 02:59:29;;;;;;;15.73;11.40;;;2.70;99.90;;;;;;4993580;28;20969;-68
2021/11/07 03:01:56;;;;;;;12.30;10.00;;;2.60;99.90;;;;;;4993794;28;20466;-67
2021/11/07 03:04:23;;;;;;;13.90;10.60;;;2.60;99.90;;;;;;4993597;28;20419;-67
2021/11/07 03:06:49;;;;;;;14.27;9.73;;;2.60;99.90;;;;;;4993634;28;20415;-67
2021/11/07 03:09:19;;;;;;;16.07;11.67;;;2.60;99.90;;;;;;4993180;28;20422;-66
2021/11/07 03:11:45;;;;;;;13.07;10.80;;;2.50;99.90;;;;;;4993598;28;20999;-66
2021/11/07 03:14:17;;;;;;;14.83;10.17;;;2.50;99.90;;;;;;4993473;28;20528;-68
2021/11/07 03:16:44;;;;;;;16.07;12.07;;;2.50;99.90;;;;;;4993364;28;20509;-66
2021/11/07 03:19:10;;;;;;;14.50;11.30;;;2.50;99.90;;;;;;4993063;28;20419;-67
2021/11/07 03:21:37;;;;;;;14.43;11.67;;;2.50;99.90;;;;;;4993285;28;20476;-67
2021/11/07 03:24:03;;;;;;;18.20;11.60;;;2.50;99.90;;;;;;4993338;28;20466;-67
2021/11/07 03:26:30;;;;;;;16.13;11.17;;;2.50;99.90;;;;;;4993194;28;20838;-67
2021/11/07 03:29:01;;;;;;;16.40;11.33;;;2.50;99.90;;;;;;4993012;28;20179;-67
2021/11/07 03:34:00;;;;;;;15.03;10.47;;;2.30;99.90;;;;;;4993371;28;20455;-67
2021/11/07 03:36:25;;;;;;;16.63;12.17;;;2.30;99.90;;;;;;4993152;28;20454;-67
2021/11/07 03:38:54;;;;;;;16.53;10.70;;;2.20;99.90;;;;;;4992810;28;20466;-67
2021/11/07 03:41:20;;;;;;;12.73;11.37;;;2.30;99.90;;;;;;4993018;28;20199;-68
2021/11/07 03:43:47;;;;;;;12.23;10.30;;;2.30;99.90;;;;;;4992993;28;20458;-67
2021/11/07 03:46:14;;;;;;;13.00;10.20;;;2.30;99.90;;;;;;4992873;28;20429;-68
2021/11/07 03:48:40;;;;;;;14.80;10.90;;;2.20;99.90;;;;;;4992656;28;20430;-67
2021/11/07 03:51:11;;;;;;;14.30;10.87;;;2.20;99.90;;;;;;4992841;28;20470;-68
2021/11/07 03:53:36;;;;;;;14.33;11.10;;;2.30;99.90;;;;;;4992901;28;20931;-67
2021/11/07 03:56:02;;;;;;;15.20;11.20;;;2.30;99.90;;;;;;4993088;28;20437;-68
2021/11/07 03:58:28;;;;;;;11.90;10.47;;;2.30;99.90;;;;;;4991886;28;20214;-67
2021/11/07 04:00:54;;;;;;;14.23;11.50;;;2.20;99.90;;;;;;4992661;28;20195;-67
2021/11/07 04:03:19;;;;;;;11.83;10.07;;;2.30;99.90;;;;;;4992769;28;20179;-67
2021/11/07 04:05:45;;;;;;;12.57;11.10;;;2.30;99.90;;;;;;4992720;28;20284;-67
2021/11/07 04:08:10;;;;;;;13.20;10.90;;;2.20;99.90;;;;;;4992360;28;20175;-67
2021/11/07 04:10:36;;;;;;;12.23;10.90;;;2.30;99.90;;;;;;4992613;28;20211;-68
2021/11/07 04:13:05;;;;;;;13.23;10.97;;;2.20;99.90;;;;;;4992654;28;20167;-67
2021/11/07 04:15:31;;;;;;;13.20;10.83;;;2.30;99.90;;;;;;4992856;28;20177;-66
2021/11/07 04:17:56;;;;;;;14.17;10.60;;;2.20;99.90;;;;;;4992348;28;20419;-67
2021/11/07 04:20:22;;;;;;;13.70;11.50;;;2.20;99.90;;;;;;4992523;28;20435;-67
2021/11/07 04:22:48;;;;;;;19.57;13.20;;;2.30;99.90;;;;;;4992559;28;20180;-67
2021/11/07 04:25:14;;;;;;;14.20;11.10;;;2.30;99.90;;;;;;4992589;28;20175;-67
2021/11/07 04:27:40;;;;;;;14.97;11.13;;;2.40;99.90;;;;;;4992165;28;20712;-67
2021/11/07 04:30:07;;;;;;;20.17;12.50;;;2.50;99.90;;;;;;4992290;28;20455;-66
2021/11/07 04:32:33;;;;;;;12.90;11.20;;;2.50;99.90;;;;;;4993016;28;20226;-67
2021/11/07 04:34:59;;;;;;;13.73;10.93;;;2.50;99.90;;;;;;4992465;28;20418;-68
2021/11/07 04:37:26;;;;;;;13.07;10.20;;;2.40;99.90;;;;;;4992115;28;20431;-67
2021/11/07 04:39:51;;;;;;;12.77;11.20;;;2.50;99.90;;;;;;4992394;28;20226;-67
2021/11/07 04:42:17;;;;;;;15.30;12.10;;;2.50;99.90;;;;;;4992303;28;20860;-66
2021/11/07 04:44:43;;;;;;;14.40;12.30;;;2.40;99.90;;;;;;4992400;28;20697;-67
2021/11/07 04:47:09;;;;;;;11.97;10.30;;;2.40;99.90;;;;;;4992253;28;20430;-67
2021/11/07 04:49:35;;;;;;;14.03;10.90;;;2.40;99.90;;;;;;4992310;28;20542;-67
2021/11/07 04:52:00;;;;;;;14.83;12.10;;;2.30;99.90;;;;;;4992289;28;20457;-67
2021/11/07 04:54:27;;;;;;;16.20;12.87;;;2.30;99.90;;;;;;4992283;28;20939;-66
2021/11/07 04:56:53;;;;;;;13.03;11.27;;;2.30;99.90;;;;;;4992242;28;20258;-68
2021/11/07 04:59:19;;;;;;;14.20;12.00;;;2.30;99.90;;;;;;4991932;28;20423;-67
2021/11/07 05:01:45;;;;;;;12.57;9.90;;;2.30;99.90;;;;;;4992197;28;20457;-67
2021/11/07 05:04:11;;;;;;;12.50;10.53;;;2.30;99.90;;;;;;4992220;28;20450;-67
2021/11/07 05:06:37;;;;;;;12.40;10.30;;;2.30;99.90;;;;;;4992173;28;20522;-67
2021/11/07 05:09:04;;;;;;;11.80;9.97;;;2.20;99.90;;;;;;4993915;28;20184;-68
2021/11/07 05:11:30;;;;;;;15.23;10.50;;;2.30;99.90;;;;;;4994326;28;20261;-67
2021/11/07 05:13:55;;;;;;;16.40;10.90;;;2.20;99.90;;;;;;4995745;28;20454;-68
2021/11/07 05:16:21;;;;;;;13.47;9.90;;;2.30;99.90;;;;;;4995801;28;20211;-67
2021/11/07 05:18:47;;;;;;;11.77;9.90;;;2.30;99.90;;;;;;4995391;28;20544;-67
2021/11/07 05:21:12;;;;;;;11.10;8.87;;;2.30;99.90;;;;;;4995593;28;20199;-67
2021/11/07 05:23:38;;;;;;;13.70;11.07;;;2.30;99.90;;;;;;4995584;28;20182;-67
2021/11/07 05:26:04;;;;;;;12.73;9.80;;;2.30;99.90;;;;;;4994205;28;20680;-67
2021/11/07 05:28:29;;;;;;;11.97;9.43;;;2.20;99.90;;;;;;4995109;28;20218;-67
2021/11/07 05:30:55;;;;;;;13.63;10.40;;;2.10;99.90;;;;;;4995143;28;20216;-66
2021/11/07 05:33:21;;;;;;;14.13;10.50;;;2.10;99.90;;;;;;4995459;28;20180;-68
2021/11/07 05:35:47;;;;;;;11.30;9.00;;;2.10;99.90;;;;;;4995396;28;20218;-68
2021/11/07 05:38:13;;;;;;;12.20;9.90;;;2.20;99.90;;;;;;4994976;28;20450;-68
2021/11/07 05:40:38;;;;;;;14.60;10.90;;;2.20;99.90;;;;;;4995091;28;20188;-67
2021/11/07 05:43:04;;;;;;;12.47;10.13;;;2.20;99.90;;;;;;4993936;28;20210;-68
2021/11/07 05:45:30;;;;;;;17.00;12.00;;;2.20;99.90;;;;;;4995496;28;20171;-67
2021/11/07 05:47:56;;;;;;;17.20;11.77;;;2.20;99.90;;;;;;4994852;28;20423;-67
2021/11/07 05:50:23;;;;;;;15.27;11.67;;;2.20;99.90;;;;;;4994905;28;20205;-67
2021/11/07 05:52:49;;;;;;;15.70;11.50;;;2.20;99.90;;;;;;4995135;28;20190;-68
2021/11/07 05:55:15;;;;;;;15.77;10.77;;;2.20;99.90;;;;;;4994962;28;20418;-68
2021/11/07 05:57:41;;;;;;;12.80;9.93;;;2.20;99.90;;;;;;4994607;28;20446;-67
2021/11/07 06:00:10;;;;;;;15.80;10.03;;;2.20;99.90;;;;;;4994923;28;20180;-68
2021/11/07 06:02:35;;;;;;;14.60;10.60;;;2.10;99.90;;;;;;4994820;28;20446;-68
2021/11/07 06:05:01;;;;;;;14.83;10.43;;;2.20;99.90;;;;;;4994785;28;20489;-67
2021/11/07 06:07:27;;;;;;;15.53;10.80;;;2.20;99.90;;;;;;4994465;28;20184;-67
2021/11/07 06:09:52;;;;;;;16.83;11.90;;;2.20;99.90;;;;;;4994661;28;20595;-67
2021/11/07 06:12:18;;;;;;;15.93;11.70;;;2.20;99.90;;;;;;4994604;28;20188;-67
2021/11/07 06:14:44;;;;;;;20.97;12.80;;;2.20;99.90;;;;;;4994666;28;20226;-67
2021/11/07 06:17:11;;;;;;;16.03;10.60;;;2.20;99.90;;;;;;4994650;28;20172;-67
2021/11/07 06:19:36;;;;;;;18.17;12.77;;;2.10;99.90;;;;;;4994210;28;20855;-67
2021/11/07 06:22:02;;;;;;;21.87;14.00;;;2.20;99.90;;;;;;4994304;28;20472;-66
2021/11/07 06:24:28;;;;;;;18.23;12.27;;;2.10;99.90;;;;;;4994359;28;20175;-66
2021/11/07 06:26:56;;;;;;;18.77;13.40;;;2.20;99.90;;;;;;4994360;28;20454;-66
2021/11/07 06:29:23;;;;;;;19.33;13.37;;;2.20;99.90;;;;;;4992767;28;20430;-68
2021/11/07 06:31:51;;;;;;;20.67;13.97;;;2.20;99.90;;;;;;4994171;28;20474;-67
2021/11/07 06:34:18;;;;;;;20.90;14.87;;;2.20;99.90;;;;;;4994224;28;20444;-66
2021/11/07 06:36:43;;;;;;;23.93;14.90;;;2.20;99.90;;;;;;4994473;28;20521;-67
2021/11/07 06:39:09;;;;;;;24.17;14.30;;;2.30;99.90;;;;;;4993865;28;20517;-66
2021/11/07 06:41:35;;;;;;;22.17;13.83;;;2.30;99.90;;;;;;4994029;28;20203;-69
2021/11/07 06:44:01;;;;;;;24.77;15.20;;;2.30;99.90;;;;;;4994071;28;20182;-68
2021/11/07 06:46:27;;;;;;;22.57;14.40;;;2.30;99.90;;;;;;4994019;28;20203;-67
2021/11/07 06:48:52;;;;;;;26.80;16.33;;;2.40;99.90;;;;;;4993699;28;20454;-67
2021/11/07 06:51:19;;;;;;;27.70;17.00;;;2.40;99.90;;;;;;4993867;28;21027;-66
2021/11/07 06:53:45;;;;;;;19.60;15.27;;;2.40;99.90;;;;;;4993824;28;20211;-66
2021/11/07 06:56:10;;;;;;;19.30;15.23;;;2.50;99.90;;;;;;4994124;28;20935;-65
2021/11/07 06:58:36;;;;;;;27.13;16.30;;;2.70;99.90;;;;;;4993513;28;20423;-68
2021/11/07 07:01:02;;;;;;;26.63;15.60;;;2.90;99.90;;;;;;4993615;28;20207;-68
2021/11/07 07:03:28;;;;;;;20.97;15.57;;;3.10;99.90;;;;;;4993740;28;20268;-68
2021/11/07 07:05:54;;;;;;;24.03;15.97;;;3.20;99.90;;;;;;4993673;28;20928;-67
2021/11/07 07:08:26;;;;;;;17.50;12.83;;;3.40;99.90;;;;;;4993280;28;20645;-67
2021/11/07 07:11:00;;;;;;;21.20;14.97;;;3.70;99.90;;;;;;4993411;28;20211;-66
2021/11/07 07:13:30;;;;;;;17.70;14.43;;;3.80;99.90;;;;;;4993557;28;20419;-67
2021/11/07 07:19:09;;;;;;;19.53;13.93;;;4.20;99.90;;;;;;4993109;28;20511;-67
2021/11/07 07:32:00;;;;;;;15.97;13.10;;;5.40;99.90;;;;;;4992255;28;20478;-68
2021/11/07 07:34:26;;;;;;;16.27;11.67;;;5.30;99.90;;;;;;4993217;28;20430;-67
2021/11/07 07:36:53;;;;;;;15.23;11.37;;;5.30;99.90;;;;;;4993154;28;20431;-66
2021/11/07 07:39:21;;;;;;;15.80;11.67;;;5.20;99.90;;;;;;4992721;28;20445;-67
2021/11/07 07:41:47;;;;;;;17.57;12.40;;;5.20;99.90;;;;;;4993002;28;20541;-67
2021/11/07 07:44:14;;;;;;;17.53;12.73;;;5.30;99.90;;;;;;4993082;28;20438;-67
2021/11/07 07:46:43;;;;;;;15.20;12.57;;;5.50;99.90;;;;;;4993026;28;20796;-67
2021/11/07 07:49:11;;;;;;;19.73;13.60;;;6.00;99.90;;;;;;4992768;28;20427;-67
2021/11/07 07:51:36;;;;;;;16.23;13.07;;;6.30;99.90;;;;;;4992789;28;20521;-68
2021/11/07 07:54:04;;;;;;;18.50;12.80;;;7.20;99.90;;;;;;4992789;28;20418;-67
2021/11/07 07:56:31;;;;;;;15.80;12.40;;;8.20;99.90;;;;;;4992894;28;20171;-67
2021/11/07 07:58:57;;;;;;;14.30;11.00;;;8.70;99.90;;;;;;4992607;28;20510;-67
2021/11/07 08:01:23;;;;;;;12.33;11.00;;;8.40;99.90;;;;;;4992792;28;20450;-68
2021/11/07 08:03:50;;;;;;;12.70;9.93;;;8.20;99.90;;;;;;4992865;28;20423;-67
2021/11/07 08:06:15;;;;;;;16.37;13.50;;;7.40;99.90;;;;;;4992893;28;20226;-67
2021/11/07 08:08:41;;;;;;;15.87;11.20;;;6.70;99.90;;;;;;4992285;28;20936;-67
2021/11/07 08:11:06;;;;;;;14.57;11.40;;;6.50;99.90;;;;;;4992474;28;20211;-68
2021/11/07 08:13:33;;;;;;;18.53;11.73;;;6.50;99.90;;;;;;4992742;28;20296;-68
2021/11/07 08:15:58;;;;;;;15.03;12.60;;;6.30;99.90;;;;;;4992741;28;20206;-68
2021/11/07 08:18:24;;;;;;;14.20;11.40;;;5.90;99.90;;;;;;4992317;28;20931;-67
2021/11/07 08:20:50;;;;;;;16.73;11.60;;;5.50;99.90;;;;;;4992552;28;20201;-67
2021/11/07 08:23:16;;;;;;;20.13;15.37;;;5.30;99.90;;;;;;4992526;28;20951;-67
2021/11/07 08:25:43;;;;;;;17.23;14.20;;;5.20;99.90;;;;;;4992554;28;20218;-67
2021/11/07 08:28:09;;;;;;;20.13;13.63;;;5.30;99.90;;;;;;4992378;28;20419;-67
2021/11/07 08:30:40;;;;;;;17.83;12.80;;;5.20;99.90;;;;;;4992471;28;20520;-67
2021/11/07 08:33:06;;;;;;;16.17;11.77;;;5.30;99.90;;;;;;4992521;28;20822;-67
2021/11/07 08:35:33;;;;;;;17.47;12.50;;;5.10;99.90;;;;;;4992534;28;20422;-67
2021/11/07 08:38:06;;;;;;;16.80;11.70;;;5.10;99.90;;;;;;4992068;28;20431;-67
2021/11/07 08:40:45;;;;;;;14.90;12.70;;;5.00;99.90;;;;;;4992304;28;20492;-67
2021/11/07 08:54:28;;;;;;;16.03;12.27;;;4.90;99.90;;;;;;4993245;28;20477;-68
2021/11/07 09:00:17;;;;;;;16.17;12.03;;;5.40;99.90;;;;;;4995945;28;20616;-68
2021/11/07 09:07:59;;;;;;;12.60;9.23;;;5.90;99.90;;;;;;4995030;28;20477;-67
2021/11/07 09:10:29;;;;;;;13.63;10.33;;;5.90;99.90;;;;;;4995606;28;20481;-68
2021/11/07 09:12:54;;;;;;;11.90;9.10;;;5.90;99.90;;;;;;4995760;28;20427;-68
2021/11/07 09:15:22;;;;;;;14.00;10.63;;;6.00;99.90;;;;;;4994523;28;20428;-68
2021/11/07 09:17:49;;;;;;;11.43;8.90;;;6.30;99.90;;;;;;4994068;28;20180;-68
2021/11/07 09:20:30;;;;;;;10.73;8.53;;;6.80;99.90;;;;;;4995605;28;20855;-68
2021/11/07 09:23:07;;;;;;;9.33;7.00;;;7.80;99.90;;;;;;4995661;28;20426;-68
2021/11/07 09:25:46;;;;;;;10.03;6.93;;;9.10;99.90;;;;;;4995606;28;20775;-67
2021/11/07 09:28:24;;;;;;;7.80;6.93;;;9.90;99.90;;;;;;4995243;28;20454;-67
2021/11/07 09:33:27;;;;;;;7.33;6.53;;;10.70;99.90;;;;;;4995467;28;20814;-68
2021/11/07 09:38:28;;;;;;;6.23;5.70;;;11.40;99.90;;;;;;4995373;28;20505;-68
2021/11/07 09:41:50;;;;;;;4.63;4.23;;;11.90;99.90;;;;;;4995321;28;20866;-68
2021/11/07 09:43:52;;;;;;;5.07;4.30;;;11.60;99.90;;;;;;4997367;28;20445;-68
2021/11/07 09:47:05;;;;;;;4.93;4.43;;;10.90;99.90;;;;;;4995061;28;20455;-68
2021/11/07 09:51:54;;;;;;;6.03;5.43;;;10.30;99.90;;;;;;5014641;28;20994;-68
2021/11/07 09:54:20;;;;;;;3.90;3.57;;;10.20;99.90;;;;;;5014162;28;20453;-68
2021/11/07 09:56:51;;;;;;;4.17;3.77;;;10.00;99.90;;;;;;5014071;28;20414;-67
2021/11/07 09:59:17;;;;;;;4.80;4.30;;;10.10;99.90;;;;;;5013038;28;20432;-67
2021/11/07 10:01:44;;;;;;;4.30;3.90;;;10.30;99.90;;;;;;5003135;28;20486;-66
2021/11/07 10:04:11;;;;;;;3.97;3.40;;;10.70;99.90;;;;;;4994921;28;20426;-67
2021/11/07 10:06:45;;;;;;;3.67;3.37;;;10.40;99.90;;;;;;4994623;28;20438;-68
2021/11/07 10:09:13;;;;;;;4.20;3.80;;;10.30;99.90;;;;;;4994462;28;20433;-68
2021/11/07 10:12:04;;;;;;;3.83;3.30;;;10.80;99.90;;;;;;4994520;28;21046;-69
2021/11/07 10:14:55;;;;;;;5.70;3.13;;;11.20;99.90;;;;;;4994666;28;20994;-67
2021/11/07 10:17:48;;;;;;;4.00;3.60;;;11.70;99.90;;;;;;4995945;28;20442;-67
2021/11/07 10:20:21;;;;;;;4.13;3.50;;;12.40;99.90;;;;;;4994700;28;20462;-68
2021/11/07 10:22:53;;;;;;;4.43;3.70;;;12.20;99.90;;;;;;4994457;28;20421;-68
2021/11/07 10:25:22;;;;;;;4.07;3.73;;;11.60;99.90;;;;;;4994458;28;20469;-67
2021/11/07 10:27:55;;;;;;;3.60;3.33;;;12.70;99.90;;;;;;4994141;28;20418;-68
2021/11/07 10:30:26;;;;;;;3.47;3.17;;;13.80;99.90;;;;;;4994108;28;20529;-68
2021/11/07 10:33:12;;;;;;;5.53;4.60;;;13.80;99.90;;;;;;4994750;28;20941;-67
2021/11/07 10:38:52;;;;;;;4.50;3.67;;;15.60;99.60;;;;;;4993964;28;20476;-67
2021/11/07 10:47:18;;;;;;;3.60;3.30;;;15.70;97.20;;;;;;4994304;28;20501;-68
2021/11/07 10:52:37;;;;;;;3.20;2.90;;;16.10;96.30;;;;;;4993826;28;20453;-68
2021/11/07 10:55:26;;;;;;;2.80;2.60;;;17.70;94.50;;;;;;4993848;28;20419;-67
2021/11/07 10:57:55;;;;;;;4.00;3.70;;;17.40;93.80;;;;;;4993654;28;20414;-68
2021/11/07 11:00:29;;;;;;;4.10;3.80;;;15.20;96.20;;;;;;4993772;28;20772;-68
2021/11/07 11:03:09;;;;;;;3.83;3.53;;;14.30;97.50;;;;;;4993721;28;20433;-68
2021/11/07 11:05:49;;;;;;;3.40;3.20;;;13.50;99.80;;;;;;4993518;28;20458;-67
2021/11/07 11:08:24;;;;;;;3.80;3.50;;;13.20;99.90;;;;;;4993354;28;20430;-67
2021/11/07 11:11:01;;;;;;;3.87;3.57;;;13.20;99.90;;;;;;4993466;28;20472;-68
2021/11/07 11:13:53;;;;;;;3.47;3.03;;;13.20;99.90;;;;;;4993537;28;20670;-68
2021/11/07 11:24:58;;;;;;;2.10;1.90;;;13.50;99.90;;;;;;5012843;28;20429;-66
2021/11/07 11:30:51;;;;;;;2.00;1.53;;;12.60;99.90;;;;;;5012914;28;20461;-66
2021/11/07 11:33:29;;;;;;;1.50;1.40;;;12.70;99.90;;;;;;5009463;28;20438;-66
2021/11/07 11:38:48;;;;;;;2.73;2.43;;;12.60;99.90;;;;;;5012382;28;20452;-65
2021/11/07 11:41:25;;;;;;;1.90;1.80;;;12.50;99.90;;;;;;5000109;28;20527;-66
2021/11/07 11:43:53;;;;;;;1.60;1.40;;;12.30;99.90;;;;;;5009164;28;20429;-67
2021/11/07 11:47:18;;;;;;;3.27;2.97;;;12.00;99.90;;;;;;5009289;28;20437;-66
2021/11/07 11:49:49;;;;;;;1.70;1.60;;;11.70;99.90;;;;;;5005845;28;20452;-67
2021/11/07 11:52:28;;;;;;;2.13;1.60;;;11.70;99.90;;;;;;5007844;28;20463;-67
2021/11/07 12:03:26;;;;;;;1.53;1.40;;;14.50;99.90;;;;;;5009467;28;20430;-66
2021/11/07 12:05:56;;;;;;;1.97;1.53;;;17.10;99.00;;;;;;5009235;28;20809;-66
2021/11/07 12:08:31;;;;;;;1.53;1.27;;;20.10;92.40;;;;;;5008813;28;20405;-67
2021/11/07 12:14:48;;;;;;;4.80;3.47;;;23.40;75.10;;;;;;5009380;28;20457;-67
2021/11/07 12:17:07;;;;;;;4.00;1.80;;;23.60;68.40;;;;;;5006830;28;20483;-67
2021/11/07 12:19:43;;;;;;;0.90;0.90;;;23.50;69.40;;;;;;5014823;28;20440;-66
2021/11/07 12:22:12;;;;;;;1.70;1.30;;;24.30;64.50;;;;;;5015702;28;20463;-67
2021/11/07 12:24:46;;;;;;;2.20;1.33;;;24.90;61.90;;;;;;5015838;28;20464;-66
2021/11/07 12:27:35;;;;;;;1.77;1.37;;;24.50;61.40;;;;;;5015610;28;20412;-66
2021/11/07 12:30:17;;;;;;;1.67;1.23;;;24.50;61.00;;;;;;5015640;28;20468;-67
2021/11/07 12:32:46;;;;;;;1.63;1.40;;;25.40;58.80;;;;;;5015683;28;20986;-67
2021/11/07 12:35:34;;;;;;;1.07;0.97;;;25.10;57.20;;;;;;5015757;28;20417;-66
2021/11/07 12:41:17;;;;;;;1.50;1.40;;;24.70;57.20;;;;;;5015393;28;20532;-66
2021/11/07 12:43:44;;;;;;;1.87;1.20;;;23.30;58.50;;;;;;5011719;28;20425;-66
2021/11/07 12:46:48;;;;;;;1.40;1.30;;;19.80;62.60;;;;;;4995791;28;20513;-65
2021/11/07 12:49:13;;;;;;;1.03;1.00;;;19.70;67.50;;;;;;4994626;28;21091;-65
2021/11/07 12:51:42;;;;;;;1.90;1.50;;;20.00;66.10;;;;;;4994770;28;20497;-66
2021/11/07 12:54:16;;;;;;;2.30;1.67;;;18.30;71.30;;;;;;4995742;28;20176;-65
2021/11/07 12:56:47;;;;;;;1.60;1.17;;;17.60;74.70;;;;;;4995474;28;20828;-65
2021/11/07 12:59:36;;;;;;;3.90;2.57;;;16.30;79.80;;;;;;4994854;28;20476;-65
2021/11/07 13:02:06;;;;;;;1.20;1.10;;;15.30;86.20;;;;;;4990855;28;20457;-67
2021/11/07 13:04:44;;;;;;;2.60;2.40;;;15.00;90.30;;;;;;5005816;28;20525;-65
2021/11/07 13:07:12;;;;;;;1.67;1.40;;;14.60;92.20;;;;;;4997391;28;20422;-64
2021/11/07 13:09:51;;;;;;;1.40;1.30;;;14.30;93.80;;;;;;4998477;28;20423;-66
2021/11/07 13:18:28;;;;;;;2.30;1.47;;;13.40;98.70;;;;;;4997936;28;20774;-64
2021/11/07 13:20:57;;;;;;;2.10;1.00;;;13.20;99.90;;;;;;4998165;28;20454;-65
2021/11/07 13:26:30;;;;;;;1.80;1.53;;;12.80;99.90;;;;;;4998778;28;20426;-65
2021/11/07 13:31:44;;;;;;;1.33;1.23;;;12.70;99.90;;;;;;4995223;28;20471;-66
2021/11/07 13:34:18;;;;;;;1.20;1.10;;;12.10;99.90;;;;;;4995325;28;20931;-64
2021/11/07 13:36:45;;;;;;;1.53;1.43;;;11.90;99.90;;;;;;4995759;28;20434;-66
2021/11/07 13:39:13;;;;;;;2.50;1.17;;;11.80;99.90;;;;;;4994937;28;20423;-65
2021/11/07 13:41:41;;;;;;;1.63;1.53;;;11.90;99.90;;;;;;4995107;28;20522;-65
2021/11/07 13:44:17;;;;;;;1.63;1.20;;;12.00;99.90;;;;;;4995221;28;20419;-65
2021/11/07 13:46:53;;;;;;;1.33;1.00;;;11.90;99.90;;;;;;4995087;28;20924;-67
2021/11/07 13:49:19;;;;;;;1.60;1.50;;;11.90;99.90;;;;;;5008351;28;20848;-65
2021/11/07 13:52:00;;;;;;;1.33;1.23;;;11.80;99.90;;;;;;5022596;28;20462;-64
2021/11/07 13:54:27;;;;;;;1.20;1.10;;;11.90;99.90;;;;;;5013784;28;20176;-65
2021/11/07 13:56:53;;;;;;;1.47;1.20;;;11.80;99.90;;;;;;5013938;28;20436;-66
2021/11/07 13:59:40;;;;;;;1.30;1.20;;;11.80;99.90;;;;;;5014130;28;20426;-66
2021/11/07 14:02:17;;;;;;;1.20;1.10;;;11.70;99.90;;;;;;5014294;28;20441;-66
2021/11/07 14:04:49;;;;;;;1.75;1.17;;;11.70;99.90;;;;;;5014484;28;20399;-64
2021/11/07 14:07:21;;;;;;;1.03;0.93;;;11.80;99.90;;;;;;5013853;28;20692;-65
2021/11/07 14:10:04;;;;;;;1.53;1.27;;;11.80;99.90;;;;;;5011362;28;20468;-64
2021/11/07 14:12:32;;;;;;;2.60;2.17;;;11.70;99.90;;;;;;5012971;28;20445;-64
2021/11/07 14:15:29;;;;;;;1.50;1.40;;;11.90;99.90;;;;;;5013039;28;20428;-65
2021/11/07 14:18:23;;;;;;;1.17;1.07;;;11.80;99.90;;;;;;5010845;28;20441;-64
2021/11/07 14:20:56;;;;;;;1.30;1.00;;;11.80;99.90;;;;;;5014058;28;20472;-65
2021/11/07 14:26:16;;;;;;;1.73;1.50;;;11.60;99.90;;;;;;5007540;28;20445;-64
2021/11/07 14:31:57;;;;;;;1.10;1.00;;;11.40;99.90;;;;;;5009303;28;20507;-66
2021/11/07 14:35:10;;;;;;;1.20;1.10;;;11.20;99.90;;;;;;5010190;28;20449;-65
2021/11/07 14:37:23;;;;;;;1.60;1.47;;;11.00;99.90;;;;;;4998266;28;20843;-65
2021/11/07 14:55:41;;;;;;;1.53;1.43;;;10.30;99.90;;;;;;5007723;28;20483;-65
2021/11/07 15:01:38;;;;;;;1.83;1.60;;;10.10;99.90;;;;;;5008791;28;20486;-66
2021/11/07 15:06:36;;;;;;;3.40;1.80;;;10.10;99.90;;;;;;5007396;28;20446;-65
2021/11/07 15:09:11;;;;;;;1.70;1.60;;;10.10;99.90;;;;;;5006627;28;20800;-64
2021/11/07 15:11:51;;;;;;;1.77;1.67;;;10.10;99.90;;;;;;5007712;28;20974;-65